sensor_id;sensor_type;location;lat;lon;timestamp;P1;durP1;ratioP1;P2;durP2;ratioP2
34876;SDS011;21086;44.780;17.194;2023-10-08T00:01:04;5.80;;;2.65;;
34876;SDS011;21086;44.780;17.194;2023-10-08T00:03:55;3.35;;;2.60;;
34876;SDS011;21086;44.780;17.194;2023-10-08T00:06:45;3.92;;;2.30;;
34876;SDS011;21086;44.780;17.194;2023-10-08T00:09:33;4.53;;;2.88;;
34876;SDS011;21086;44.780;17.194;2023-10-08T00:12:24;5.65;;;2.60;;
34876;SDS011;21086;44.780;17.194;2023-10-08T00:15:11;3.75;;;2.60;;
34876;SDS011;21086;44.780;17.194;2023-10-08T00:17:58;5.90;;;2.42;;
34876;SDS011;21086;44.780;17.194;2023-10-08T00:20:48;4.18;;;2.30;;
34876;SDS011;21086;44.780;17.194;2023-10-08T00:23:44;4.95;;;3.00;;
34876;SDS011;21086;44.780;17.194;2023-10-08T00:26:47;4.35;;;2.78;;
34876;SDS011;21086;44.780;17.194;2023-10-08T00:29:37;5.15;;;2.78;;
34876;SDS011;21086;44.780;17.194;2023-10-08T00:32:26;3.60;;;2.65;;
34876;SDS011;21086;44.780;17.194;2023-10-08T00:35:14;4.22;;;2.65;;
34876;SDS011;21086;44.780;17.194;2023-10-08T00:38:10;4.95;;;3.13;;
34876;SDS011;21086;44.780;17.194;2023-10-08T00:41:07;4.35;;;2.97;;
34876;SDS011;21086;44.780;17.194;2023-10-08T00:43:56;3.90;;;2.35;;
34876;SDS011;21086;44.780;17.194;2023-10-08T00:46:46;4.55;;;2.45;;
34876;SDS011;21086;44.780;17.194;2023-10-08T00:49:36;4.32;;;2.70;;
34876;SDS011;21086;44.780;17.194;2023-10-08T00:52:24;4.20;;;2.67;;
34876;SDS011;21086;44.780;17.194;2023-10-08T00:55:17;6.45;;;3.22;;
34876;SDS011;21086;44.780;17.194;2023-10-08T00:58:11;4.68;;;3.22;;
34876;SDS011;21086;44.780;17.194;2023-10-08T01:00:59;4.75;;;3.13;;
34876;SDS011;21086;44.780;17.194;2023-10-08T01:03:49;6.30;;;2.83;;
34876;SDS011;21086;44.780;17.194;2023-10-08T01:06:46;3.40;;;2.20;;
34876;SDS011;21086;44.780;17.194;2023-10-08T01:09:36;5.45;;;2.67;;
34876;SDS011;21086;44.780;17.194;2023-10-08T01:12:28;8.07;;;2.90;;
34876;SDS011;21086;44.780;17.194;2023-10-08T01:15:21;4.75;;;2.70;;
34876;SDS011;21086;44.780;17.194;2023-10-08T01:18:15;2.95;;;1.98;;
34876;SDS011;21086;44.780;17.194;2023-10-08T01:21:08;5.13;;;2.45;;
34876;SDS011;21086;44.780;17.194;2023-10-08T01:24:05;4.90;;;2.10;;
34876;SDS011;21086;44.780;17.194;2023-10-08T01:26:53;3.00;;;1.80;;
34876;SDS011;21086;44.780;17.194;2023-10-08T01:29:41;2.80;;;1.77;;
34876;SDS011;21086;44.780;17.194;2023-10-08T01:32:30;3.00;;;1.73;;
34876;SDS011;21086;44.780;17.194;2023-10-08T01:35:21;3.13;;;2.10;;
34876;SDS011;21086;44.780;17.194;2023-10-08T01:38:11;3.42;;;1.80;;
34876;SDS011;21086;44.780;17.194;2023-10-08T01:41:14;3.85;;;2.13;;
34876;SDS011;21086;44.780;17.194;2023-10-08T01:44:12;4.90;;;2.10;;
34876;SDS011;21086;44.780;17.194;2023-10-08T01:47:00;3.53;;;1.83;;
34876;SDS011;21086;44.780;17.194;2023-10-08T01:49:50;2.72;;;1.60;;
34876;SDS011;21086;44.780;17.194;2023-10-08T01:52:51;2.58;;;1.67;;
34876;SDS011;21086;44.780;17.194;2023-10-08T01:55:39;3.15;;;1.67;;
34876;SDS011;21086;44.780;17.194;2023-10-08T01:58:35;2.65;;;1.60;;
34876;SDS011;21086;44.780;17.194;2023-10-08T02:01:22;3.13;;;1.60;;
34876;SDS011;21086;44.780;17.194;2023-10-08T02:04:10;1.85;;;1.40;;
34876;SDS011;21086;44.780;17.194;2023-10-08T02:07:04;3.17;;;1.67;;
34876;SDS011;21086;44.780;17.194;2023-10-08T02:09:54;2.85;;;1.75;;
34876;SDS011;21086;44.780;17.194;2023-10-08T02:12:41;2.78;;;1.70;;
34876;SDS011;21086;44.780;17.194;2023-10-08T02:15:29;2.05;;;1.50;;
34876;SDS011;21086;44.780;17.194;2023-10-08T02:18:16;2.55;;;1.45;;
34876;SDS011;21086;44.780;17.194;2023-10-08T02:21:04;3.05;;;1.60;;
34876;SDS011;21086;44.780;17.194;2023-10-08T02:23:52;2.72;;;1.52;;
34876;SDS011;21086;44.780;17.194;2023-10-08T02:26:39;3.00;;;1.50;;
34876;SDS011;21086;44.780;17.194;2023-10-08T02:29:28;3.40;;;1.77;;
34876;SDS011;21086;44.780;17.194;2023-10-08T02:32:16;2.92;;;1.73;;
34876;SDS011;21086;44.780;17.194;2023-10-08T02:35:05;3.13;;;1.92;;
34876;SDS011;21086;44.780;17.194;2023-10-08T02:37:55;3.38;;;2.03;;
34876;SDS011;21086;44.780;17.194;2023-10-08T02:40:43;3.55;;;1.73;;
34876;SDS011;21086;44.780;17.194;2023-10-08T02:43:35;2.72;;;1.38;;
34876;SDS011;21086;44.780;17.194;2023-10-08T02:46:23;4.57;;;1.90;;
34876;SDS011;21086;44.780;17.194;2023-10-08T02:49:17;5.00;;;1.80;;
34876;SDS011;21086;44.780;17.194;2023-10-08T02:52:11;2.88;;;1.35;;
34876;SDS011;21086;44.780;17.194;2023-10-08T02:54:59;3.20;;;1.70;;
34876;SDS011;21086;44.780;17.194;2023-10-08T02:57:47;3.13;;;1.40;;
34876;SDS011;21086;44.780;17.194;2023-10-08T03:00:37;4.15;;;1.83;;
34876;SDS011;21086;44.780;17.194;2023-10-08T03:03:27;3.00;;;1.63;;
34876;SDS011;21086;44.780;17.194;2023-10-08T03:06:15;1.65;;;1.40;;
34876;SDS011;21086;44.780;17.194;2023-10-08T03:09:05;2.20;;;1.48;;
34876;SDS011;21086;44.780;17.194;2023-10-08T03:11:52;5.47;;;1.50;;
34876;SDS011;21086;44.780;17.194;2023-10-08T03:14:40;2.60;;;1.30;;
34876;SDS011;21086;44.780;17.194;2023-10-08T03:17:47;2.30;;;1.42;;
34876;SDS011;21086;44.780;17.194;2023-10-08T03:20:36;2.35;;;1.15;;
34876;SDS011;21086;44.780;17.194;2023-10-08T03:23:26;3.65;;;1.50;;
34876;SDS011;21086;44.780;17.194;2023-10-08T03:26:21;1.85;;;1.30;;
34876;SDS011;21086;44.780;17.194;2023-10-08T03:29:17;3.88;;;1.55;;
34876;SDS011;21086;44.780;17.194;2023-10-08T03:32:06;3.28;;;1.50;;
34876;SDS011;21086;44.780;17.194;2023-10-08T03:35:04;2.40;;;1.50;;
34876;SDS011;21086;44.780;17.194;2023-10-08T03:37:57;1.80;;;1.25;;
34876;SDS011;21086;44.780;17.194;2023-10-08T03:41:04;2.60;;;1.60;;
34876;SDS011;21086;44.780;17.194;2023-10-08T03:43:56;2.88;;;1.60;;
34876;SDS011;21086;44.780;17.194;2023-10-08T03:46:53;2.40;;;1.50;;
34876;SDS011;21086;44.780;17.194;2023-10-08T03:49:43;4.60;;;3.20;;
34876;SDS011;21086;44.780;17.194;2023-10-08T03:52:37;3.47;;;1.50;;
34876;SDS011;21086;44.780;17.194;2023-10-08T03:55:25;3.40;;;1.58;;
34876;SDS011;21086;44.780;17.194;2023-10-08T03:58:13;2.35;;;1.25;;
34876;SDS011;21086;44.780;17.194;2023-10-08T04:01:14;2.47;;;1.55;;
34876;SDS011;21086;44.780;17.194;2023-10-08T04:04:06;3.67;;;1.48;;
34876;SDS011;21086;44.780;17.194;2023-10-08T04:06:59;2.25;;;1.38;;
34876;SDS011;21086;44.780;17.194;2023-10-08T04:10:06;2.50;;;1.80;;
34876;SDS011;21086;44.780;17.194;2023-10-08T04:12:57;2.63;;;1.70;;
34876;SDS011;21086;44.780;17.194;2023-10-08T04:15:44;2.88;;;1.48;;
34876;SDS011;21086;44.780;17.194;2023-10-08T04:18:31;2.78;;;1.50;;
34876;SDS011;21086;44.780;17.194;2023-10-08T04:21:27;2.72;;;1.20;;
34876;SDS011;21086;44.780;17.194;2023-10-08T04:24:14;2.22;;;1.20;;
34876;SDS011;21086;44.780;17.194;2023-10-08T04:27:02;2.45;;;1.55;;
34876;SDS011;21086;44.780;17.194;2023-10-08T04:29:52;3.15;;;1.65;;
34876;SDS011;21086;44.780;17.194;2023-10-08T04:32:39;1.88;;;1.15;;
34876;SDS011;21086;44.780;17.194;2023-10-08T04:35:27;2.30;;;1.45;;
34876;SDS011;21086;44.780;17.194;2023-10-08T04:38:15;2.08;;;1.23;;
34876;SDS011;21086;44.780;17.194;2023-10-08T04:41:05;1.88;;;1.20;;
34876;SDS011;21086;44.780;17.194;2023-10-08T04:43:55;2.55;;;1.50;;
34876;SDS011;21086;44.780;17.194;2023-10-08T04:46:43;3.45;;;1.73;;
34876;SDS011;21086;44.780;17.194;2023-10-08T04:49:34;3.08;;;1.58;;
34876;SDS011;21086;44.780;17.194;2023-10-08T04:52:24;2.33;;;1.40;;
34876;SDS011;21086;44.780;17.194;2023-10-08T04:55:14;26.85;;;4.95;;
34876;SDS011;21086;44.780;17.194;2023-10-08T04:58:07;2.40;;;1.40;;
34876;SDS011;21086;44.780;17.194;2023-10-08T05:01:07;2.15;;;1.30;;
34876;SDS011;21086;44.780;17.194;2023-10-08T05:04:05;2.78;;;1.50;;
34876;SDS011;21086;44.780;17.194;2023-10-08T05:06:52;4.50;;;1.88;;
34876;SDS011;21086;44.780;17.194;2023-10-08T05:10:09;3.72;;;1.92;;
34876;SDS011;21086;44.780;17.194;2023-10-08T05:13:12;3.03;;;1.48;;
34876;SDS011;21086;44.780;17.194;2023-10-08T05:16:03;2.05;;;1.33;;
34876;SDS011;21086;44.780;17.194;2023-10-08T05:19:13;3.95;;;1.60;;
34876;SDS011;21086;44.780;17.194;2023-10-08T05:22:33;2.08;;;1.30;;
34876;SDS011;21086;44.780;17.194;2023-10-08T05:25:20;4.60;;;1.75;;
34876;SDS011;21086;44.780;17.194;2023-10-08T05:28:08;4.28;;;1.67;;
34876;SDS011;21086;44.780;17.194;2023-10-08T05:31:10;3.65;;;1.58;;
34876;SDS011;21086;44.780;17.194;2023-10-08T05:34:01;5.50;;;1.90;;
34876;SDS011;21086;44.780;17.194;2023-10-08T05:37:06;4.15;;;2.00;;
34876;SDS011;21086;44.780;17.194;2023-10-08T05:39:54;5.00;;;1.50;;
34876;SDS011;21086;44.780;17.194;2023-10-08T05:42:42;3.33;;;1.60;;
34876;SDS011;21086;44.780;17.194;2023-10-08T05:45:33;3.30;;;2.00;;
34876;SDS011;21086;44.780;17.194;2023-10-08T05:48:22;4.47;;;1.95;;
34876;SDS011;21086;44.780;17.194;2023-10-08T05:51:14;2.25;;;1.52;;
34876;SDS011;21086;44.780;17.194;2023-10-08T05:54:21;4.25;;;1.60;;
34876;SDS011;21086;44.780;17.194;2023-10-08T05:57:19;5.20;;;1.80;;
34876;SDS011;21086;44.780;17.194;2023-10-08T06:00:25;3.80;;;1.70;;
34876;SDS011;21086;44.780;17.194;2023-10-08T06:03:33;3.38;;;1.50;;
34876;SDS011;21086;44.780;17.194;2023-10-08T06:06:46;2.85;;;1.50;;
34876;SDS011;21086;44.780;17.194;2023-10-08T06:09:44;5.50;;;1.92;;
34876;SDS011;21086;44.780;17.194;2023-10-08T06:12:49;2.63;;;1.38;;
34876;SDS011;21086;44.780;17.194;2023-10-08T06:15:49;6.30;;;2.08;;
34876;SDS011;21086;44.780;17.194;2023-10-08T06:18:37;3.28;;;1.63;;
34876;SDS011;21086;44.780;17.194;2023-10-08T06:21:24;4.15;;;2.95;;
34876;SDS011;21086;44.780;17.194;2023-10-08T06:24:13;4.85;;;2.10;;
34876;SDS011;21086;44.780;17.194;2023-10-08T06:27:04;3.80;;;2.30;;
34876;SDS011;21086;44.780;17.194;2023-10-08T06:29:51;4.68;;;2.30;;
34876;SDS011;21086;44.780;17.194;2023-10-08T06:32:45;3.92;;;2.00;;
34876;SDS011;21086;44.780;17.194;2023-10-08T06:35:32;6.45;;;2.08;;
34876;SDS011;21086;44.780;17.194;2023-10-08T06:38:20;3.95;;;2.70;;
34876;SDS011;21086;44.780;17.194;2023-10-08T06:41:09;4.88;;;3.25;;
34876;SDS011;21086;44.780;17.194;2023-10-08T06:44:04;2.97;;;2.30;;
34876;SDS011;21086;44.780;17.194;2023-10-08T06:47:01;2.75;;;1.75;;
34876;SDS011;21086;44.780;17.194;2023-10-08T06:49:49;2.92;;;1.70;;
34876;SDS011;21086;44.780;17.194;2023-10-08T06:52:38;4.20;;;2.10;;
34876;SDS011;21086;44.780;17.194;2023-10-08T06:55:30;4.53;;;2.00;;
34876;SDS011;21086;44.780;17.194;2023-10-08T06:58:17;5.60;;;2.38;;
34876;SDS011;21086;44.780;17.194;2023-10-08T07:01:04;2.78;;;1.60;;
34876;SDS011;21086;44.780;17.194;2023-10-08T07:03:55;3.03;;;1.75;;
34876;SDS011;21086;44.780;17.194;2023-10-08T07:06:51;4.95;;;2.45;;
34876;SDS011;21086;44.780;17.194;2023-10-08T07:09:38;4.15;;;1.95;;
34876;SDS011;21086;44.780;17.194;2023-10-08T07:12:25;1.83;;;1.52;;
34876;SDS011;21086;44.780;17.194;2023-10-08T07:15:12;2.50;;;1.33;;
34876;SDS011;21086;44.780;17.194;2023-10-08T07:18:00;5.80;;;1.80;;
34876;SDS011;21086;44.780;17.194;2023-10-08T07:20:56;5.43;;;2.35;;
34876;SDS011;21086;44.780;17.194;2023-10-08T07:23:47;3.13;;;2.00;;
34876;SDS011;21086;44.780;17.194;2023-10-08T07:26:44;2.95;;;1.83;;
34876;SDS011;21086;44.780;17.194;2023-10-08T07:29:35;2.63;;;1.88;;
34876;SDS011;21086;44.780;17.194;2023-10-08T07:32:23;3.97;;;1.80;;
34876;SDS011;21086;44.780;17.194;2023-10-08T07:35:13;4.47;;;1.90;;
34876;SDS011;21086;44.780;17.194;2023-10-08T07:38:25;5.30;;;2.17;;
34876;SDS011;21086;44.780;17.194;2023-10-08T07:41:15;3.15;;;1.85;;
34876;SDS011;21086;44.780;17.194;2023-10-08T07:44:03;5.07;;;2.28;;
34876;SDS011;21086;44.780;17.194;2023-10-08T07:46:52;4.07;;;1.98;;
34876;SDS011;21086;44.780;17.194;2023-10-08T07:49:43;5.70;;;2.17;;
34876;SDS011;21086;44.780;17.194;2023-10-08T07:52:30;3.63;;;2.28;;
34876;SDS011;21086;44.780;17.194;2023-10-08T07:55:18;3.50;;;2.28;;
34876;SDS011;21086;44.780;17.194;2023-10-08T07:58:05;4.00;;;2.20;;
34876;SDS011;21086;44.780;17.194;2023-10-08T08:00:56;2.67;;;2.03;;
34876;SDS011;21086;44.780;17.194;2023-10-08T08:03:47;3.92;;;1.60;;
34876;SDS011;21086;44.780;17.194;2023-10-08T08:06:36;4.22;;;2.30;;
34876;SDS011;21086;44.780;17.194;2023-10-08T08:09:24;2.75;;;1.85;;
34876;SDS011;21086;44.780;17.194;2023-10-08T08:12:13;3.45;;;2.40;;
34876;SDS011;21086;44.780;17.194;2023-10-08T08:15:00;2.88;;;1.60;;
34876;SDS011;21086;44.780;17.194;2023-10-08T08:17:50;2.50;;;1.60;;
34876;SDS011;21086;44.780;17.194;2023-10-08T08:20:38;3.28;;;1.80;;
34876;SDS011;21086;44.780;17.194;2023-10-08T08:23:26;2.75;;;1.73;;
34876;SDS011;21086;44.780;17.194;2023-10-08T08:26:16;3.67;;;1.85;;
34876;SDS011;21086;44.780;17.194;2023-10-08T08:29:27;3.33;;;1.83;;
34876;SDS011;21086;44.780;17.194;2023-10-08T08:32:15;3.80;;;2.17;;
34876;SDS011;21086;44.780;17.194;2023-10-08T08:35:11;2.63;;;1.95;;
34876;SDS011;21086;44.780;17.194;2023-10-08T08:38:03;2.47;;;1.70;;
34876;SDS011;21086;44.780;17.194;2023-10-08T08:41:01;3.22;;;1.80;;
34876;SDS011;21086;44.780;17.194;2023-10-08T08:43:54;2.72;;;1.80;;
34876;SDS011;21086;44.780;17.194;2023-10-08T08:46:53;6.10;;;1.95;;
34876;SDS011;21086;44.780;17.194;2023-10-08T08:49:42;5.05;;;1.88;;
34876;SDS011;21086;44.780;17.194;2023-10-08T08:52:35;3.72;;;2.03;;
34876;SDS011;21086;44.780;17.194;2023-10-08T08:55:26;3.20;;;1.88;;
34876;SDS011;21086;44.780;17.194;2023-10-08T08:58:15;2.78;;;2.13;;
34876;SDS011;21086;44.780;17.194;2023-10-08T09:01:03;2.92;;;1.88;;
34876;SDS011;21086;44.780;17.194;2023-10-08T09:04:01;4.38;;;1.83;;
34876;SDS011;21086;44.780;17.194;2023-10-08T09:06:52;2.35;;;1.65;;
34876;SDS011;21086;44.780;17.194;2023-10-08T09:09:40;3.88;;;2.00;;
34876;SDS011;21086;44.780;17.194;2023-10-08T09:12:28;7.60;;;1.75;;
34876;SDS011;21086;44.780;17.194;2023-10-08T09:15:15;2.78;;;1.55;;
34876;SDS011;21086;44.780;17.194;2023-10-08T09:18:03;4.03;;;1.90;;
34876;SDS011;21086;44.780;17.194;2023-10-08T09:20:51;4.55;;;2.38;;
34876;SDS011;21086;44.780;17.194;2023-10-08T09:23:40;4.15;;;1.92;;
34876;SDS011;21086;44.780;17.194;2023-10-08T09:26:32;4.82;;;2.00;;
34876;SDS011;21086;44.780;17.194;2023-10-08T09:29:22;8.40;;;2.13;;
34876;SDS011;21086;44.780;17.194;2023-10-08T09:32:12;2.97;;;1.92;;
34876;SDS011;21086;44.780;17.194;2023-10-08T09:35:00;4.55;;;1.80;;
34876;SDS011;21086;44.780;17.194;2023-10-08T09:37:48;2.22;;;1.70;;
34876;SDS011;21086;44.780;17.194;2023-10-08T09:40:40;2.30;;;1.50;;
34876;SDS011;21086;44.780;17.194;2023-10-08T09:43:29;6.13;;;1.52;;
34876;SDS011;21086;44.780;17.194;2023-10-08T09:46:19;2.05;;;1.40;;
34876;SDS011;21086;44.780;17.194;2023-10-08T09:49:09;3.65;;;1.50;;
34876;SDS011;21086;44.780;17.194;2023-10-08T09:52:00;2.10;;;1.60;;
34876;SDS011;21086;44.780;17.194;2023-10-08T09:54:55;2.83;;;1.48;;
34876;SDS011;21086;44.780;17.194;2023-10-08T09:57:46;8.73;;;2.10;;
34876;SDS011;21086;44.780;17.194;2023-10-08T10:00:33;2.72;;;1.40;;
34876;SDS011;21086;44.780;17.194;2023-10-08T10:03:26;2.22;;;1.50;;
34876;SDS011;21086;44.780;17.194;2023-10-08T10:06:15;2.28;;;1.50;;
34876;SDS011;21086;44.780;17.194;2023-10-08T10:09:05;3.17;;;1.65;;
34876;SDS011;21086;44.780;17.194;2023-10-08T10:12:02;3.13;;;1.77;;
34876;SDS011;21086;44.780;17.194;2023-10-08T10:14:56;2.33;;;1.77;;
34876;SDS011;21086;44.780;17.194;2023-10-08T10:17:46;4.32;;;2.40;;
34876;SDS011;21086;44.780;17.194;2023-10-08T10:20:39;2.53;;;1.95;;
34876;SDS011;21086;44.780;17.194;2023-10-08T10:23:47;4.55;;;1.95;;
34876;SDS011;21086;44.780;17.194;2023-10-08T10:26:37;2.70;;;1.92;;
34876;SDS011;21086;44.780;17.194;2023-10-08T10:29:27;4.68;;;2.33;;
34876;SDS011;21086;44.780;17.194;2023-10-08T10:32:19;4.35;;;1.60;;
34876;SDS011;21086;44.780;17.194;2023-10-08T10:35:06;5.63;;;1.83;;
34876;SDS011;21086;44.780;17.194;2023-10-08T10:37:58;3.08;;;1.67;;
34876;SDS011;21086;44.780;17.194;2023-10-08T10:40:50;1.52;;;1.20;;
34876;SDS011;21086;44.780;17.194;2023-10-08T10:43:44;3.67;;;1.17;;
34876;SDS011;21086;44.780;17.194;2023-10-08T10:46:42;4.03;;;1.60;;
34876;SDS011;21086;44.780;17.194;2023-10-08T10:49:37;3.88;;;1.55;;
34876;SDS011;21086;44.780;17.194;2023-10-08T10:52:57;6.10;;;1.38;;
34876;SDS011;21086;44.780;17.194;2023-10-08T10:55:44;1.75;;;1.13;;
34876;SDS011;21086;44.780;17.194;2023-10-08T10:58:46;3.45;;;1.50;;
34876;SDS011;21086;44.780;17.194;2023-10-08T11:01:40;5.93;;;1.52;;
34876;SDS011;21086;44.780;17.194;2023-10-08T11:04:39;4.55;;;1.85;;
34876;SDS011;21086;44.780;17.194;2023-10-08T11:07:35;2.42;;;1.30;;
34876;SDS011;21086;44.780;17.194;2023-10-08T11:10:27;2.17;;;1.27;;
34876;SDS011;21086;44.780;17.194;2023-10-08T11:13:20;2.70;;;1.55;;
34876;SDS011;21086;44.780;17.194;2023-10-08T11:16:15;1.77;;;1.13;;
34876;SDS011;21086;44.780;17.194;2023-10-08T11:19:03;2.78;;;1.40;;
34876;SDS011;21086;44.780;17.194;2023-10-08T11:21:55;3.42;;;1.20;;
34876;SDS011;21086;44.780;17.194;2023-10-08T11:24:43;2.55;;;1.35;;
34876;SDS011;21086;44.780;17.194;2023-10-08T11:27:34;4.40;;;1.48;;
34876;SDS011;21086;44.780;17.194;2023-10-08T11:30:25;2.22;;;1.48;;
34876;SDS011;21086;44.780;17.194;2023-10-08T11:33:17;3.38;;;1.80;;
34876;SDS011;21086;44.780;17.194;2023-10-08T11:36:05;3.40;;;1.45;;
34876;SDS011;21086;44.780;17.194;2023-10-08T11:39:11;2.08;;;1.27;;
34876;SDS011;21086;44.780;17.194;2023-10-08T11:42:08;4.13;;;1.40;;
34876;SDS011;21086;44.780;17.194;2023-10-08T11:45:12;3.65;;;1.27;;
34876;SDS011;21086;44.780;17.194;2023-10-08T11:48:10;4.00;;;1.45;;
34876;SDS011;21086;44.780;17.194;2023-10-08T11:51:02;6.90;;;2.80;;
34876;SDS011;21086;44.780;17.194;2023-10-08T11:53:52;5.55;;;1.48;;
34876;SDS011;21086;44.780;17.194;2023-10-08T11:56:40;2.13;;;1.40;;
34876;SDS011;21086;44.780;17.194;2023-10-08T11:59:28;3.75;;;1.60;;
34876;SDS011;21086;44.780;17.194;2023-10-08T12:02:16;4.65;;;1.40;;
34876;SDS011;21086;44.780;17.194;2023-10-08T12:05:07;3.22;;;1.05;;
34876;SDS011;21086;44.780;17.194;2023-10-08T12:08:05;2.78;;;1.20;;
34876;SDS011;21086;44.780;17.194;2023-10-08T12:10:55;4.07;;;1.60;;
34876;SDS011;21086;44.780;17.194;2023-10-08T12:13:42;2.38;;;1.10;;
34876;SDS011;21086;44.780;17.194;2023-10-08T12:16:31;3.72;;;1.40;;
34876;SDS011;21086;44.780;17.194;2023-10-08T12:19:22;6.72;;;1.50;;
34876;SDS011;21086;44.780;17.194;2023-10-08T12:22:10;10.93;;;1.80;;
34876;SDS011;21086;44.780;17.194;2023-10-08T12:25:02;4.25;;;1.67;;
34876;SDS011;21086;44.780;17.194;2023-10-08T12:27:51;3.67;;;1.33;;
34876;SDS011;21086;44.780;17.194;2023-10-08T12:30:38;2.67;;;1.50;;
34876;SDS011;21086;44.780;17.194;2023-10-08T12:33:29;7.22;;;1.80;;
34876;SDS011;21086;44.780;17.194;2023-10-08T12:36:19;4.68;;;1.80;;
34876;SDS011;21086;44.780;17.194;2023-10-08T12:39:09;4.47;;;1.60;;
34876;SDS011;21086;44.780;17.194;2023-10-08T12:42:02;5.03;;;1.90;;
34876;SDS011;21086;44.780;17.194;2023-10-08T12:44:51;3.05;;;1.70;;
34876;SDS011;21086;44.780;17.194;2023-10-08T12:47:44;3.53;;;1.65;;
34876;SDS011;21086;44.780;17.194;2023-10-08T12:50:31;4.47;;;1.88;;
34876;SDS011;21086;44.780;17.194;2023-10-08T12:53:31;7.25;;;2.08;;
34876;SDS011;21086;44.780;17.194;2023-10-08T12:56:23;5.47;;;2.08;;
34876;SDS011;21086;44.780;17.194;2023-10-08T12:59:18;4.07;;;2.00;;
34876;SDS011;21086;44.780;17.194;2023-10-08T13:02:10;5.50;;;2.25;;
34876;SDS011;21086;44.780;17.194;2023-10-08T13:04:58;12.90;;;2.83;;
34876;SDS011;21086;44.780;17.194;2023-10-08T13:07:46;6.55;;;3.03;;
34876;SDS011;21086;44.780;17.194;2023-10-08T13:10:33;6.32;;;2.90;;
34876;SDS011;21086;44.780;17.194;2023-10-08T13:13:21;5.38;;;2.22;;
34876;SDS011;21086;44.780;17.194;2023-10-08T13:16:12;7.22;;;2.15;;
34876;SDS011;21086;44.780;17.194;2023-10-08T13:19:00;5.65;;;2.10;;
34876;SDS011;21086;44.780;17.194;2023-10-08T13:21:48;3.03;;;1.67;;
34876;SDS011;21086;44.780;17.194;2023-10-08T13:24:39;4.97;;;2.00;;
34876;SDS011;21086;44.780;17.194;2023-10-08T13:27:28;3.63;;;1.95;;
34876;SDS011;21086;44.780;17.194;2023-10-08T13:30:17;4.03;;;1.90;;
34876;SDS011;21086;44.780;17.194;2023-10-08T13:33:04;6.47;;;1.77;;
34876;SDS011;21086;44.780;17.194;2023-10-08T13:35:53;4.15;;;1.60;;
34876;SDS011;21086;44.780;17.194;2023-10-08T13:39:01;4.97;;;1.70;;
34876;SDS011;21086;44.780;17.194;2023-10-08T13:41:48;4.72;;;1.98;;
34876;SDS011;21086;44.780;17.194;2023-10-08T13:44:36;7.13;;;1.58;;
34876;SDS011;21086;44.780;17.194;2023-10-08T13:47:24;4.82;;;2.03;;
34876;SDS011;21086;44.780;17.194;2023-10-08T13:50:12;5.15;;;1.98;;
34876;SDS011;21086;44.780;17.194;2023-10-08T13:53:00;3.28;;;1.52;;
34876;SDS011;21086;44.780;17.194;2023-10-08T13:55:48;7.10;;;1.83;;
34876;SDS011;21086;44.780;17.194;2023-10-08T13:58:35;3.50;;;1.70;;
34876;SDS011;21086;44.780;17.194;2023-10-08T14:01:27;4.22;;;1.80;;
34876;SDS011;21086;44.780;17.194;2023-10-08T14:04:14;4.10;;;1.70;;
34876;SDS011;21086;44.780;17.194;2023-10-08T14:07:09;7.05;;;2.05;;
34876;SDS011;21086;44.780;17.194;2023-10-08T14:10:08;4.82;;;1.63;;
34876;SDS011;21086;44.780;17.194;2023-10-08T14:13:03;3.35;;;1.45;;
34876;SDS011;21086;44.780;17.194;2023-10-08T14:15:51;2.50;;;1.50;;
34876;SDS011;21086;44.780;17.194;2023-10-08T14:18:42;6.72;;;2.00;;
34876;SDS011;21086;44.780;17.194;2023-10-08T14:21:38;3.88;;;1.73;;
34876;SDS011;21086;44.780;17.194;2023-10-08T14:24:37;3.35;;;1.60;;
34876;SDS011;21086;44.780;17.194;2023-10-08T14:27:25;5.45;;;2.08;;
34876;SDS011;21086;44.780;17.194;2023-10-08T14:30:19;5.93;;;2.20;;
34876;SDS011;21086;44.780;17.194;2023-10-08T14:33:11;4.43;;;1.90;;
34876;SDS011;21086;44.780;17.194;2023-10-08T14:36:10;4.40;;;2.10;;
34876;SDS011;21086;44.780;17.194;2023-10-08T14:39:19;3.95;;;1.85;;
34876;SDS011;21086;44.780;17.194;2023-10-08T14:42:25;8.18;;;2.40;;
34876;SDS011;21086;44.780;17.194;2023-10-08T14:45:34;3.10;;;1.77;;
34876;SDS011;21086;44.780;17.194;2023-10-08T14:48:28;5.93;;;2.20;;
34876;SDS011;21086;44.780;17.194;2023-10-08T14:51:16;3.45;;;1.77;;
34876;SDS011;21086;44.780;17.194;2023-10-08T14:54:06;3.75;;;2.13;;
34876;SDS011;21086;44.780;17.194;2023-10-08T14:56:54;7.10;;;3.90;;
34876;SDS011;21086;44.780;17.194;2023-10-08T14:59:43;9.23;;;4.18;;
34876;SDS011;21086;44.780;17.194;2023-10-08T15:02:31;7.40;;;3.80;;
34876;SDS011;21086;44.780;17.194;2023-10-08T15:05:20;5.43;;;3.10;;
34876;SDS011;21086;44.780;17.194;2023-10-08T15:08:08;5.22;;;3.47;;
34876;SDS011;21086;44.780;17.194;2023-10-08T15:10:57;4.70;;;3.35;;
34876;SDS011;21086;44.780;17.194;2023-10-08T15:13:45;4.88;;;3.15;;
34876;SDS011;21086;44.780;17.194;2023-10-08T15:16:32;5.55;;;3.40;;
34876;SDS011;21086;44.780;17.194;2023-10-08T15:19:23;6.53;;;3.53;;
34876;SDS011;21086;44.780;17.194;2023-10-08T15:22:13;5.45;;;3.40;;
34876;SDS011;21086;44.780;17.194;2023-10-08T15:25:01;8.40;;;3.15;;
34876;SDS011;21086;44.780;17.194;2023-10-08T15:27:48;8.75;;;3.50;;
34876;SDS011;21086;44.780;17.194;2023-10-08T15:30:36;5.22;;;2.70;;
34876;SDS011;21086;44.780;17.194;2023-10-08T15:33:24;7.88;;;3.53;;
34876;SDS011;21086;44.780;17.194;2023-10-08T15:36:13;7.10;;;4.13;;
34876;SDS011;21086;44.780;17.194;2023-10-08T15:39:00;11.05;;;3.95;;
34876;SDS011;21086;44.780;17.194;2023-10-08T15:41:48;8.73;;;3.65;;
34876;SDS011;21086;44.780;17.194;2023-10-08T15:44:36;6.82;;;3.00;;
34876;SDS011;21086;44.780;17.194;2023-10-08T15:47:23;14.05;;;4.25;;
34876;SDS011;21086;44.780;17.194;2023-10-08T15:50:14;8.63;;;4.15;;
34876;SDS011;21086;44.780;17.194;2023-10-08T15:53:01;9.50;;;4.30;;
34876;SDS011;21086;44.780;17.194;2023-10-08T15:55:48;7.30;;;3.97;;
34876;SDS011;21086;44.780;17.194;2023-10-08T15:58:36;6.28;;;3.60;;
34876;SDS011;21086;44.780;17.194;2023-10-08T16:01:23;6.47;;;3.40;;
34876;SDS011;21086;44.780;17.194;2023-10-08T16:04:12;6.97;;;3.63;;
34876;SDS011;21086;44.780;17.194;2023-10-08T16:07:00;7.97;;;3.25;;
34876;SDS011;21086;44.780;17.194;2023-10-08T16:09:47;10.73;;;3.50;;
34876;SDS011;21086;44.780;17.194;2023-10-08T16:12:35;8.77;;;3.67;;
34876;SDS011;21086;44.780;17.194;2023-10-08T16:15:23;7.47;;;4.20;;
34876;SDS011;21086;44.780;17.194;2023-10-08T16:18:10;6.72;;;3.63;;
34876;SDS011;21086;44.780;17.194;2023-10-08T16:20:58;10.60;;;4.93;;
34876;SDS011;21086;44.780;17.194;2023-10-08T16:23:48;6.03;;;3.10;;
34876;SDS011;21086;44.780;17.194;2023-10-08T16:26:36;5.65;;;4.10;;
34876;SDS011;21086;44.780;17.194;2023-10-08T16:29:24;7.45;;;4.00;;
34876;SDS011;21086;44.780;17.194;2023-10-08T16:32:11;7.53;;;4.53;;
34876;SDS011;21086;44.780;17.194;2023-10-08T16:34:58;9.50;;;4.78;;
34876;SDS011;21086;44.780;17.194;2023-10-08T16:37:46;6.82;;;4.45;;
34876;SDS011;21086;44.780;17.194;2023-10-08T16:40:34;7.93;;;4.00;;
34876;SDS011;21086;44.780;17.194;2023-10-08T16:43:21;6.18;;;3.97;;
34876;SDS011;21086;44.780;17.194;2023-10-08T16:46:09;9.55;;;4.13;;
34876;SDS011;21086;44.780;17.194;2023-10-08T16:48:56;7.85;;;3.97;;
34876;SDS011;21086;44.780;17.194;2023-10-08T16:51:43;6.72;;;3.60;;
34876;SDS011;21086;44.780;17.194;2023-10-08T16:54:31;8.68;;;4.10;;
34876;SDS011;21086;44.780;17.194;2023-10-08T16:57:22;7.15;;;4.10;;